EDT,Max TemperatureF,Mean TemperatureF,Min TemperatureF,Max Dew PointF,MeanDew PointF,Min DewpointF,Max Humidity, Mean Humidity, Min Humidity, Max Sea Level PressureIn, Mean Sea Level PressureIn, Min Sea Level PressureIn, Max VisibilityMiles, Mean VisibilityMiles, Min VisibilityMiles, Max Wind SpeedMPH, Mean Wind SpeedMPH, Max Gust SpeedMPH,PrecipitationIn, CloudCover, Events, WindDirDegrees
2013-7-1,79,70,61,68,64,62,99,86,54,29.98,29.90,29.84,10,9,4,7,1,,0.00,4,Rain,245
2013-7-2,80,71,62,68,65,62,99,85,58,30.15,30.05,29.97,10,9,4,14,2,18,0.00,6,Rain,222
2013-7-3,68,66,63,67,65,63,99,97,90,30.23,30.19,30.13,10,7,1,8,1,,0.00,7,Rain,70
2013-7-4,77,70,63,69,66,64,100,91,68,30.23,30.19,30.15,10,10,2,8,1,16,0.00,8,Rain,215
2013-7-5,78,72,65,70,66,65,99,88,67,30.26,30.22,30.18,10,10,5,6,1,,0.00,7,Rain,262
2013-7-6,79,72,66,69,67,65,100,90,65,30.23,30.19,30.15,10,9,1,10,1,,0.00,7,Rain,201
2013-7-7,79,74,68,71,69,67,100,91,68,30.23,30.18,30.15,10,9,2,9,1,,0.00,7,Rain,265
2013-7-8,85,76,67,73,69,67,100,86,58,30.25,30.21,30.15,10,9,3,12,1,16,0.00,6,Rain,304
2013-7-9,86,76,67,73,70,67,100,87,59,30.24,30.19,30.12,10,9,0,9,1,,0.00,5,Fog-Rain,259
2013-7-10,84,76,67,73,69,67,100,88,65,30.19,30.10,30.02,10,9,0,13,1,16,0.00,5,Fog-Rain,265
2013-7-11,80,74,68,73,70,68,99,89,68,30.04,30.00,29.93,10,10,7,7,1,,0.00,5,Rain,282
2013-7-12,84,74,64,68,66,62,100,78,49,30.03,29.97,29.94,10,8,0,10,2,17,0.00,3,Fog,15
2013-7-13,80,72,63,69,65,63,99,82,58,30.13,30.07,30.01,10,9,5,7,1,,0.00,6,,272
2013-7-14,81,73,65,70,67,65,99,88,63,30.30,30.20,30.12,10,10,5,9,1,17,0.00,8,Rain,49
2013-7-15,86,74,63,70,66,63,100,79,52,30.36,30.32,30.27,10,9,0,12,2,,0.00,5,Fog,69
2013-7-16,87,75,63,73,69,63,99,78,57,30.39,30.34,30.29,10,10,7,9,1,,0.00,2,Rain,174
2013-7-17,89,76,63,73,68,63,100,80,50,30.36,30.31,30.21,10,9,4,12,1,,0.00,1,Rain,61
2013-7-18,86,74,62,72,67,62,99,83,58,30.30,30.21,30.12,10,10,7,14,1,24,0.00,3,Rain,342
2013-7-19,86,74,62,74,68,63,100,87,58,30.20,30.14,30.07,10,8,0,12,1,,0.00,3,Fog-Rain,348
2013-7-20,86,76,67,72,69,66,100,84,57,30.11,30.06,29.99,10,8,0,15,1,21,0.00,5,Fog-Rain,207
2013-7-21,84,75,66,72,69,66,99,87,61,30.10,30.05,30.00,10,8,2,9,1,,0.00,5,Rain,2
2013-7-22,81,74,67,71,69,66,98,88,68,30.07,30.00,29.91,10,10,2,10,2,23,0.08,6,Rain,261
2013-7-23,81,71,61,70,67,62,100,89,68,30.00,29.96,29.90,10,8,0,10,1,17,0.02,5,Fog-Rain,243
2013-7-24,82,73,64,72,67,60,99,86,63,29.95,29.91,29.89,10,9,1,10,1,21,0.01,5,Rain,305
2013-7-25,84,72,60,68,64,60,100,80,49,30.08,29.99,29.94,10,7,0,10,1,16,0.00,4,Fog,287
2013-7-26,83,70,57,70,64,57,99,83,56,30.14,30.09,30.04,10,8,3,9,1,10,0.01,4,Rain,239
2013-7-27,80,72,64,69,66,64,100,88,62,30.08,30.01,29.95,10,7,0,8,1,,0.01,6,Fog,266
2013-7-28,81,72,64,68,65,61,100,82,51,30.11,30.03,29.98,10,7,0,12,2,17,0.00,4,Fog,249
2013-7-29,80,69,58,66,61,58,99,81,52,30.25,30.16,30.10,10,9,4,7,1,,0.00,0,,265
2013-7-30,84,68,53,72,61,52,98,80,47,30.28,30.23,30.17,10,10,10,6,1,,0.00,1,Rain,263
2013-7-31,73,70,66,69,67,64,99,92,80,30.21,30.13,30.03,10,9,3,8,0,,0.00,8,Rain,283